Black River, Michigan
Current Conditions -  °F | °C
As of 3:50 AM on Friday 31 Oct 2014 (Local Time) from KAPN Reporting Station
Light Rain Light Rain  
Wind Chill: 39°   Ceiling: 1300
Heat Index: 39°   Visibility: 10mi
Dew Point: 39°   Wind: 0mph
Humidity: 100%   Direction: NA
Pressure: 29.89"   Gusts: NA
Location:  44.82°N, 83.3°W
Report Text: KAPN 310750Z AUTO 00000KT 10SM -RA OVC013 04/04 A2989 RMK AO2 RAB0659 P0001 TSNO
Loading
Personal Weather Stations






























Interactive Weather Map
Tropical Storm Tracking
New forecast layout! Learn more

10-Day Weather Forecast

Advertisements
Track Severe Weather on mobile